createdAt,value
2019-05-15T00:00:40.164Z,55.24
2019-05-15T00:05:00.556Z,55.43
2019-05-15T00:09:21.581Z,55.82
2019-05-15T00:13:41.694Z,56.26
2019-05-15T00:18:01.949Z,56.50
2019-05-15T00:22:22.743Z,56.98
2019-05-15T00:26:43.560Z,56.03
2019-05-15T00:31:04.120Z,56.57
2019-05-15T00:35:27.917Z,56.20
2019-05-15T00:39:48.585Z,56.13
2019-05-15T00:44:09.389Z,55.90
2019-05-15T00:48:29.676Z,55.67
2019-05-15T00:52:49.833Z,55.56
2019-05-15T00:57:10.582Z,55.98
2019-05-15T01:01:31.458Z,56.86
2019-05-15T01:05:52.090Z,56.98
2019-05-15T01:10:12.463Z,57.84
2019-05-15T01:14:33.128Z,57.12
2019-05-15T01:18:54.532Z,57.08
2019-05-15T01:23:15.363Z,56.97
2019-05-15T01:27:38.284Z,57.21
2019-05-15T01:31:59.277Z,58.22
2019-05-15T01:36:20.289Z,57.23
2019-05-15T01:40:41.413Z,58.29
2019-05-15T01:45:01.821Z,58.04
2019-05-15T01:49:23.031Z,57.17
2019-05-15T01:53:44.023Z,58.29
2019-05-15T01:58:04.225Z,57.39
2019-05-15T02:02:24.768Z,57.07
2019-05-15T02:06:48.078Z,57.37
2019-05-15T02:11:09.170Z,57.23
2019-05-15T02:15:30.115Z,57.52
2019-05-15T02:19:50.728Z,57.45
2019-05-15T02:24:11.365Z,56.24
2019-05-15T02:28:31.966Z,57.61
2019-05-15T02:32:52.174Z,57.40
2019-05-15T02:37:13.115Z,57.15
2019-05-15T02:41:33.858Z,57.33
2019-05-15T02:45:54.736Z,57.61
2019-05-15T02:50:15.530Z,56.99
2019-05-15T02:54:36.374Z,56.78
2019-05-15T02:58:59.944Z,56.66
2019-05-15T03:03:20.692Z,56.35
2019-05-15T03:07:41.275Z,56.16
2019-05-15T03:12:02.020Z,55.99
2019-05-15T03:16:22.187Z,56.63
2019-05-15T03:20:42.507Z,57.15
2019-05-15T03:25:03.649Z,57.22
2019-05-15T03:29:23.984Z,57.85
2019-05-15T03:33:46.667Z,57.98
2019-05-15T03:38:09.315Z,57.55
2019-05-15T03:42:29.572Z,57.86
2019-05-15T03:46:50.150Z,57.84
2019-05-15T03:51:10.868Z,57.39
2019-05-15T03:55:31.066Z,57.96
2019-05-15T03:59:51.643Z,58.14
2019-05-15T04:04:13.281Z,57.92
2019-05-15T04:08:33.858Z,58.16
2019-05-15T04:12:54.600Z,57.93
2019-05-15T04:17:15.180Z,57.48
2019-05-15T04:21:41.228Z,56.74
2019-05-15T04:26:01.089Z,55.91
2019-05-15T04:30:21.694Z,55.12
2019-05-15T04:34:42.371Z,55.12
2019-05-15T04:39:05.193Z,55.34
2019-05-15T04:43:29.169Z,55.91
2019-05-15T04:47:49.831Z,54.43
2019-05-15T04:52:10.840Z,55.32
2019-05-15T04:56:32.637Z,55.00
2019-05-15T05:00:55.114Z,55.02
2019-05-15T05:05:15.300Z,54.02
2019-05-15T05:09:38.768Z,54.78
2019-05-15T05:13:59.226Z,54.71
2019-05-15T05:18:19.931Z,53.84
2019-05-15T05:22:40.611Z,54.36
2019-05-15T05:27:01.613Z,55.55
2019-05-15T05:31:21.906Z,54.07
2019-05-15T05:35:42.398Z,52.97
2019-05-15T05:40:02.939Z,51.76
2019-05-15T05:44:23.734Z,51.40
2019-05-15T05:48:44.207Z,51.08
2019-05-15T05:53:05.544Z,48.12
2019-05-15T05:57:27.992Z,46.98
2019-05-15T06:01:48.668Z,47.63
2019-05-15T06:06:09.700Z,44.10
2019-05-15T06:10:31.122Z,44.11
2019-05-15T06:14:51.724Z,41.77
2019-05-15T06:19:12.637Z,41.77
2019-05-15T06:23:35.597Z,41.87
2019-05-15T06:27:58.213Z,41.28
2019-05-15T06:32:19.518Z,40.57
2019-05-15T06:36:40.799Z,41.98
2019-05-15T06:41:01.771Z,39.48
2019-05-15T06:45:24.611Z,39.48
2019-05-15T06:49:45.752Z,37.44
2019-05-15T06:54:08.566Z,36.21
2019-05-15T06:58:29.346Z,35.82
2019-05-15T07:02:50.292Z,34.18
2019-05-15T07:07:11.266Z,34.18
2019-05-15T07:11:31.779Z,35.38
2019-05-15T07:15:52.274Z,35.51
2019-05-15T07:20:14.560Z,32.99
2019-05-15T07:24:35.721Z,34.08
2019-05-15T07:28:56.169Z,34.08
2019-05-15T07:33:20.271Z,33.36
2019-05-15T07:37:39.618Z,32.82
2019-05-15T07:42:02.021Z,32.15
2019-05-15T07:46:22.443Z,31.70
2019-05-15T07:50:43.111Z,32.21
2019-05-15T07:55:04.453Z,32.24
2019-05-15T07:59:25.177Z,31.99
2019-05-15T08:03:56.635Z,31.30
2019-05-15T08:08:09.060Z,31.47
2019-05-15T08:12:29.886Z,30.59
2019-05-15T08:16:51.017Z,31.93
2019-05-15T08:21:11.766Z,31.17
2019-05-15T08:25:35.423Z,30.24
2019-05-15T08:29:54.692Z,31.93
2019-05-15T08:34:16.486Z,30.16
2019-05-15T08:38:38.718Z,28.89
2019-05-15T08:43:02.182Z,29.85
2019-05-15T08:47:21.684Z,30.79
2019-05-15T08:51:42.203Z,29.05
2019-05-15T08:56:02.924Z,30.26
2019-05-15T09:00:24.187Z,26.93
2019-05-15T09:04:45.155Z,26.93
2019-05-15T09:09:09.363Z,29.43
2019-05-15T09:13:29.428Z,26.57
2019-05-15T09:17:50.292Z,26.30
2019-05-15T09:22:11.052Z,27.00
2019-05-15T09:26:35.437Z,26.88
2019-05-15T09:30:59.141Z,23.26
2019-05-15T09:35:19.576Z,22.73
2019-05-15T09:39:40.376Z,24.45
2019-05-15T09:44:01.367Z,22.84
2019-05-15T09:48:22.128Z,22.62
2019-05-15T09:52:42.637Z,23.69
2019-05-15T09:57:03.351Z,22.75
2019-05-15T10:01:23.875Z,25.19
2019-05-15T10:05:44.873Z,22.26
2019-05-15T10:10:08.556Z,24.67
2019-05-15T10:14:29.602Z,26.12
2019-05-15T10:18:51.345Z,24.45
2019-05-15T10:23:11.947Z,24.62
2019-05-15T10:27:32.984Z,25.16
2019-05-15T10:31:53.831Z,23.67
2019-05-15T10:36:14.740Z,23.00
2019-05-15T10:40:39.520Z,22.98
2019-05-15T10:45:01.199Z,24.59
2019-05-15T10:49:21.507Z,26.61
2019-05-15T10:53:43.197Z,24.44
2019-05-15T10:58:03.900Z,23.68
2019-05-15T11:02:24.284Z,21.46
2019-05-15T11:06:45.347Z,22.13
2019-05-15T11:11:08.924Z,23.44
2019-05-15T11:15:29.073Z,24.67
2019-05-15T11:19:50.325Z,25.09
2019-05-15T11:24:10.690Z,25.81
2019-05-15T11:28:32.484Z,23.41
2019-05-15T11:32:53.210Z,22.84
2019-05-15T11:37:13.386Z,26.37
2019-05-15T11:41:34.545Z,22.16
2019-05-15T11:45:58.835Z,21.95
2019-05-15T11:50:20.415Z,22.42
2019-05-15T11:54:41.454Z,21.95
2019-05-15T11:59:08.533Z,26.44
2019-05-15T12:03:38.742Z,25.54
2019-05-15T12:08:05.381Z,25.03
2019-05-15T12:12:32.101Z,25.45
2019-05-15T12:17:05.028Z,23.34
2019-05-15T12:21:21.268Z,24.44
2019-05-15T12:25:48.853Z,25.18
2019-05-15T12:30:14.647Z,21.91
2019-05-15T12:34:39.513Z,23.72
2019-05-15T12:39:10.605Z,25.39
2019-05-15T13:01:17.744Z,24.44
2019-05-15T13:05:41.102Z,23.75
2019-05-15T13:10:08.612Z,24.45
2019-05-15T13:14:32.183Z,26.14
2019-05-15T13:18:58.980Z,25.36
2019-05-15T13:23:28.571Z,26.67
2019-05-15T13:27:49.147Z,24.87
2019-05-15T13:32:09.705Z,25.25
2019-05-15T13:36:30.403Z,24.90
2019-05-15T13:40:51.235Z,23.58
2019-05-15T13:45:13.376Z,25.11
2019-05-15T13:49:34.827Z,23.96
2019-05-15T13:53:55.557Z,28.15
2019-05-15T13:58:16.505Z,25.18
2019-05-15T14:02:38.732Z,26.09
2019-05-15T14:06:59.383Z,25.62
2019-05-15T14:11:21.906Z,27.48
2019-05-15T14:15:44.065Z,27.91
2019-05-15T14:20:09.149Z,25.95
2019-05-15T14:24:29.533Z,25.94
2019-05-15T14:28:50.295Z,26.92
2019-05-15T14:33:11.017Z,27.25
2019-05-15T14:37:32.179Z,23.95
2019-05-15T14:41:53.169Z,26.37
2019-05-15T14:46:13.603Z,25.44
2019-05-15T14:50:34.044Z,26.79
2019-05-15T14:54:54.939Z,27.14
2019-05-15T14:59:15.424Z,28.04
2019-05-15T15:03:38.014Z,26.15
2019-05-15T15:07:58.904Z,27.48
2019-05-15T15:12:19.887Z,27.87
2019-05-15T15:16:40.058Z,28.38
2019-05-15T15:21:01.326Z,26.55
2019-05-15T15:25:21.942Z,26.74
2019-05-15T15:29:43.223Z,26.35
2019-05-15T15:34:03.733Z,26.18
2019-05-15T15:38:37.550Z,28.38
2019-05-15T15:42:48.528Z,26.38
2019-05-15T15:47:09.623Z,25.42
2019-05-15T15:51:30.553Z,26.42
2019-05-15T15:55:50.876Z,25.77
2019-05-15T16:00:13.058Z,25.64
2019-05-15T16:04:33.689Z,26.85
2019-05-15T16:08:55.902Z,27.33
2019-05-15T16:13:18.685Z,26.02
2019-05-15T16:17:39.036Z,26.94
2019-05-15T16:21:59.748Z,26.46
2019-05-15T16:26:21.230Z,25.75
2019-05-15T16:30:51.085Z,28.55
2019-05-15T16:35:03.801Z,27.54
2019-05-15T16:39:25.120Z,25.84
2019-05-15T16:43:45.938Z,25.14
2019-05-15T16:48:09.237Z,23.43
2019-05-15T16:52:30.953Z,22.13
2019-05-15T16:56:52.394Z,21.68
2019-05-15T17:05:34.015Z,23.87
2019-05-15T17:09:54.730Z,22.47
2019-05-15T17:14:15.547Z,22.77
2019-05-15T17:18:38.153Z,22.51
2019-05-15T17:22:59.356Z,22.20
2019-05-15T17:27:20.796Z,22.39
2019-05-15T17:31:41.325Z,22.92
2019-05-15T17:36:01.722Z,22.66
2019-05-15T17:40:22.595Z,21.95
2019-05-15T17:44:43.313Z,21.89
2019-05-15T17:49:08.183Z,22.46
2019-05-15T17:53:28.674Z,24.96
2019-05-15T17:57:56.673Z,27.39
2019-05-15T18:02:12.819Z,27.41
2019-05-15T18:06:33.589Z,27.94
2019-05-15T18:10:54.839Z,28.60
2019-05-15T18:15:15.334Z,29.39
2019-05-15T18:19:37.942Z,29.15
2019-05-15T18:23:58.737Z,29.00
2019-05-15T18:28:19.241Z,29.44
2019-05-15T18:32:40.139Z,30.14
2019-05-15T18:37:01.065Z,30.29
2019-05-15T18:41:21.703Z,30.60
2019-05-15T18:45:42.587Z,30.94
2019-05-15T18:50:06.147Z,31.26
2019-05-15T18:54:28.057Z,31.59
2019-05-15T18:58:48.922Z,31.78
2019-05-15T19:03:19.521Z,32.56
2019-05-15T19:07:32.945Z,32.61
2019-05-15T19:11:54.034Z,33.02
2019-05-15T19:16:14.398Z,34.03
2019-05-15T19:20:35.472Z,34.03
2019-05-15T19:24:58.310Z,33.64
2019-05-15T19:29:18.567Z,34.22
2019-05-15T19:33:41.172Z,34.13
2019-05-15T19:38:02.285Z,34.14
2019-05-15T19:42:23.663Z,34.70
2019-05-15T19:46:43.540Z,34.59
2019-05-15T19:51:04.804Z,35.05
2019-05-15T19:55:25.645Z,35.52
2019-05-15T19:59:48.853Z,35.67
2019-05-15T20:04:09.285Z,36.09
2019-05-15T20:08:30.914Z,36.77
2019-05-15T20:12:52.619Z,37.08
2019-05-15T20:17:14.381Z,36.70
2019-05-15T20:21:35.401Z,37.46
2019-05-15T20:25:57.675Z,37.46
2019-05-15T20:30:18.548Z,38.15
2019-05-15T20:34:39.442Z,38.88
2019-05-15T20:39:00.075Z,39.21
2019-05-15T20:43:20.723Z,38.57
2019-05-15T20:47:41.325Z,38.41
2019-05-15T20:52:02.088Z,38.83
2019-05-15T20:56:23.216Z,39.05
2019-05-15T21:00:44.272Z,39.51
2019-05-15T21:05:05.156Z,40.20
2019-05-15T21:09:30.837Z,39.42
2019-05-15T21:13:52.367Z,40.16
2019-05-15T21:18:15.951Z,40.16
2019-05-15T21:22:36.114Z,39.62
2019-05-15T21:26:58.153Z,39.68
2019-05-15T21:31:22.119Z,39.68
2019-05-15T21:35:42.859Z,40.94
2019-05-15T21:40:04.652Z,41.71
2019-05-15T21:44:25.449Z,41.71
2019-05-15T21:48:48.556Z,42.52
2019-05-15T21:53:09.493Z,43.49
2019-05-15T21:57:36.275Z,44.36
2019-05-15T22:01:52.093Z,44.47
2019-05-15T22:06:12.811Z,44.47
2019-05-15T22:10:33.657Z,44.41
2019-05-15T22:14:54.019Z,43.93
2019-05-15T22:19:14.758Z,44.92
2019-05-15T22:23:35.426Z,44.92
2019-05-15T22:27:57.893Z,44.20
2019-05-15T22:32:18.731Z,45.01
2019-05-15T22:36:40.428Z,45.61
2019-05-15T22:41:00.860Z,46.15
2019-05-15T22:45:21.050Z,46.15
2019-05-15T22:49:42.040Z,46.36
2019-05-15T22:54:02.447Z,46.87
2019-05-15T22:58:22.818Z,47.14
2019-05-15T23:02:43.007Z,47.43
2019-05-15T23:07:03.953Z,48.01
2019-05-15T23:11:24.774Z,49.23
2019-05-15T23:15:47.611Z,49.25
2019-05-15T23:20:08.861Z,49.23
2019-05-15T23:24:29.678Z,49.23
2019-05-15T23:28:50.035Z,48.96
2019-05-15T23:33:10.371Z,49.33
2019-05-15T23:37:30.737Z,49.91
2019-05-15T23:41:51.269Z,49.93
2019-05-15T23:46:11.673Z,49.75
2019-05-15T23:50:31.882Z,50.24
2019-05-15T23:54:52.602Z,50.57
2019-05-15T23:59:12.978Z,50.72
